Terminal Aerodrome Forecast
Issued by NWS

Home | Current Version | Previous Version | Text Only | Print | Product List | Glossary On
Versions: 1 2 3 4 5 6 7 8 9 10 11 12 13
000
FTUS42 TJSJ 050543
TAFJSJ
TAF
TJSJ 050543Z 0506/0606 10010KT P6SM FEW040
     FM051330 08018G25KT P6SM FEW030 FEW050
     FM052230 10010KT P6SM FEW040=

USA.gov is the U.S. government's official web portal to all federal, state and local government web resources and services.